Time;durP1;ratioP1;P1;durP2;ratioP2;P2;SDS_P1;SDS_P2;PMS_P1;PMS_P2;Temp;Humidity;BMP_temperature;BMP_pressure;BME280_temperature;BME280_humidity;BME280_pressure;Samples;Min_cycle;Max_cycle;Signal;HPM_P1;HPM_P2
2021/06/05 00:00:52;;;;;;;17.00;15.02;;;15.50;99.90;;;;;;5033996;28;20156;-94
2021/06/05 00:03:21;;;;;;;16.08;14.57;;;15.60;99.90;;;;;;5033560;28;20426;-94
2021/06/05 00:05:52;;;;;;;16.58;13.65;;;15.60;99.90;;;;;;5035955;28;20072;-95
2021/06/05 00:08:21;;;;;;;16.35;14.82;;;15.70;99.90;;;;;;5034023;28;20083;-95
2021/06/05 00:10:55;;;;;;;16.38;14.75;;;15.70;99.90;;;;;;5033634;28;20095;-93
2021/06/05 00:13:31;;;;;;;16.63;14.88;;;15.70;99.90;;;;;;5033351;28;20144;-94
2021/06/05 00:15:58;;;;;;;14.52;13.02;;;15.60;99.90;;;;;;5033362;28;20474;-94
2021/06/05 00:18:26;;;;;;;14.65;13.25;;;15.60;99.90;;;;;;5033585;28;20056;-94
2021/06/05 00:20:54;;;;;;;14.13;12.75;;;15.60;99.90;;;;;;5033492;28;20557;-94
2021/06/05 00:23:23;;;;;;;15.95;14.45;;;15.70;99.90;;;;;;5033484;28;20128;-94
2021/06/05 00:25:52;;;;;;;14.90;13.40;;;15.60;99.90;;;;;;5033477;28;20136;-95
2021/06/05 00:28:19;;;;;;;15.35;13.88;;;15.70;99.90;;;;;;5033484;28;20522;-94
2021/06/05 00:30:46;;;;;;;15.48;12.93;;;15.60;99.90;;;;;;5033452;28;20481;-95
2021/06/05 00:33:13;;;;;;;16.25;12.27;;;15.50;99.90;;;;;;5033184;28;20132;-94
2021/06/05 00:35:41;;;;;;;15.57;13.98;;;15.60;99.90;;;;;;5033427;28;20065;-95
2021/06/05 00:38:08;;;;;;;14.73;13.18;;;15.40;99.90;;;;;;5033373;28;20447;-95
2021/06/05 00:40:42;;;;;;;14.85;12.93;;;15.30;99.90;;;;;;5033129;28;20076;-96
2021/06/05 00:43:10;;;;;;;;;;;15.20;99.90;;;;;;5033993;28;20103;-95
2021/06/05 00:45:42;;;;;;;20.92;13.82;;;15.10;99.90;;;;;;5040219;28;19980;-94
2021/06/05 00:48:10;;;;;;;17.48;14.98;;;15.00;99.90;;;;;;5055463;28;20061;-93
2021/06/05 00:50:38;;;;;;;19.08;14.98;;;15.00;99.90;;;;;;5036252;28;20342;-95
2021/06/05 00:53:07;;;;;;;15.75;14.27;;;14.90;99.90;;;;;;5032790;28;20096;-95
2021/06/05 00:55:37;;;;;;;18.30;16.42;;;14.90;99.90;;;;;;5033407;28;20080;-95
2021/06/05 00:58:04;;;;;;;16.05;14.45;;;14.90;99.90;;;;;;5033376;28;20140;-96
2021/06/05 01:00:40;;;;;;;16.05;14.05;;;15.00;99.90;;;;;;5032958;28;20135;-94
2021/06/05 01:03:08;;;;;;;16.67;14.77;;;15.00;99.90;;;;;;5033122;28;20049;-95
2021/06/05 01:05:37;;;;;;;19.17;14.95;;;15.10;99.90;;;;;;5033510;28;20128;-95
2021/06/05 01:08:35;;;;;;;20.30;16.67;;;15.10;99.90;;;;;;5033337;28;20073;-95
2021/06/05 01:11:13;;;;;;;20.98;16.83;;;15.10;99.90;;;;;;5023808;28;20061;-94
2021/06/05 01:13:52;;;;;;;17.40;15.63;;;15.10;99.90;;;;;;5033259;28;20145;-95
2021/06/05 01:16:22;;;;;;;16.85;15.13;;;15.20;99.90;;;;;;5033369;28;20057;-95
2021/06/05 01:19:14;;;;;;;16.58;13.98;;;15.10;99.90;;;;;;5034235;28;20517;-92
2021/06/05 01:21:57;;;;;;;17.08;15.35;;;15.10;99.90;;;;;;5035082;28;20072;-94
2021/06/05 01:24:46;;;;;;;17.55;15.68;;;15.10;99.90;;;;;;5033483;28;20069;-95
2021/06/05 01:27:22;;;;;;;19.60;16.83;;;15.00;99.90;;;;;;5033293;28;20457;-94
2021/06/05 01:29:54;;;;;;;15.80;14.20;;;14.90;99.90;;;;;;5033893;28;20468;-94
2021/06/05 01:32:22;;;;;;;15.48;13.75;;;14.80;99.90;;;;;;5033038;28;20053;-94
2021/06/05 01:34:53;;;;;;;17.20;14.95;;;14.80;99.90;;;;;;5033344;28;20579;-94
2021/06/05 01:37:20;;;;;;;14.77;13.10;;;14.90;99.90;;;;;;5033088;28;20136;-94
2021/06/05 01:39:48;;;;;;;16.08;14.40;;;14.80;99.90;;;;;;5033746;28;20136;-96
2021/06/05 01:42:19;;;;;;;14.52;13.07;;;14.70;99.90;;;;;;5032494;28;20049;-95
2021/06/05 01:44:51;;;;;;;17.73;13.43;;;14.60;99.90;;;;;;5033392;28;20076;-94
2021/06/05 01:47:18;;;;;;;17.60;13.77;;;14.50;99.90;;;;;;5036752;28;20128;-96
2021/06/05 01:49:46;;;;;;;16.67;14.95;;;14.60;99.90;;;;;;5036497;28;20050;-95
2021/06/05 01:52:23;;;;;;;16.95;15.25;;;14.60;99.90;;;;;;5036928;28;20107;-94
2021/06/05 01:55:05;;;;;;;21.88;14.50;;;14.50;99.90;;;;;;5036146;28;20574;-95
2021/06/05 01:57:35;;;;;;;17.10;15.35;;;14.50;99.90;;;;;;5036609;28;20073;-95
2021/06/05 02:00:08;;;;;;;16.98;15.23;;;14.60;99.90;;;;;;5036751;28;20053;-94
2021/06/05 02:02:49;;;;;;;18.38;16.42;;;14.40;99.90;;;;;;5049853;28;20449;-94
2021/06/05 02:05:18;;;;;;;16.70;14.95;;;14.50;99.90;;;;;;5052040;28;20048;-94
2021/06/05 02:07:45;;;;;;;17.50;15.75;;;14.50;99.90;;;;;;5059917;28;20052;-94
2021/06/05 02:10:16;;;;;;;16.95;15.25;;;14.50;99.90;;;;;;5055542;28;20057;-93
2021/06/05 02:12:43;;;;;;;15.15;13.60;;;14.60;99.90;;;;;;5046485;28;20132;-94
2021/06/05 02:15:19;;;;;;;14.80;13.40;;;14.70;99.90;;;;;;5035358;28;20136;-95
2021/06/05 02:17:46;;;;;;;15.38;13.98;;;14.70;99.90;;;;;;5036584;28;20063;-95
2021/06/05 02:20:29;;;;;;;16.10;14.52;;;14.70;99.90;;;;;;5035760;28;20060;-94
2021/06/05 02:22:58;;;;;;;16.30;14.38;;;14.70;99.90;;;;;;5036003;28;20049;-95
2021/06/05 02:25:27;;;;;;;20.02;17.00;;;14.80;99.90;;;;;;5036202;28;20136;-95
2021/06/05 02:27:57;;;;;;;23.13;17.65;;;14.90;99.90;;;;;;5036910;28;20461;-96
2021/06/05 02:30:26;;;;;;;16.45;14.93;;;14.80;99.90;;;;;;5035839;28;20076;-95
2021/06/05 02:32:54;;;;;;;18.00;16.17;;;14.80;99.90;;;;;;5036335;28;20056;-94
2021/06/05 02:35:30;;;;;;;18.63;16.77;;;14.80;99.90;;;;;;5041888;28;20144;-96
2021/06/05 02:37:57;;;;;;;16.08;14.55;;;14.90;99.90;;;;;;5036186;28;20053;-94
2021/06/05 02:40:27;;;;;;;14.85;12.23;;;14.90;99.90;;;;;;5036127;28;20439;-94
2021/06/05 02:42:56;;;;;;;13.65;12.40;;;15.00;99.90;;;;;;5035973;28;20080;-95
2021/06/05 02:45:52;;;;;;;13.82;12.40;;;14.90;99.90;;;;;;5036595;28;20056;-94
2021/06/05 02:48:19;;;;;;;13.00;11.68;;;15.00;99.90;;;;;;5001210;28;20056;-95
2021/06/05 02:50:52;;;;;;;13.82;12.27;;;15.00;99.90;;;;;;5035384;28;20049;-93
2021/06/05 02:53:20;;;;;;;13.82;12.40;;;15.00;99.90;;;;;;5047871;28;20037;-94
2021/06/05 02:55:47;;;;;;;13.68;12.02;;;15.00;99.90;;;;;;5038314;28;20069;-94
2021/06/05 02:58:14;;;;;;;12.20;11.20;;;15.00;99.90;;;;;;5036459;28;20072;-93
2021/06/05 03:00:45;;;;;;;13.63;12.23;;;15.00;99.90;;;;;;5037344;28;20142;-95
2021/06/05 03:03:15;;;;;;;13.13;11.95;;;15.00;99.90;;;;;;5052652;28;20068;-93
2021/06/05 03:05:43;;;;;;;13.30;12.20;;;15.10;99.90;;;;;;5036968;28;20072;-95
2021/06/05 03:08:16;;;;;;;11.82;10.73;;;15.00;99.90;;;;;;5035078;28;20148;-95
2021/06/05 03:10:43;;;;;;;15.40;13.67;;;15.00;99.90;;;;;;5035495;28;20519;-95
2021/06/05 03:13:11;;;;;;;14.90;11.45;;;15.00;99.90;;;;;;5034516;28;20701;-95
2021/06/05 03:15:39;;;;;;;14.43;12.18;;;15.00;99.90;;;;;;5035489;28;20053;-95
2021/06/05 03:18:07;;;;;;;12.65;11.40;;;14.90;99.90;;;;;;5036753;28;20049;-94
2021/06/05 03:20:38;;;;;;;15.18;12.00;;;14.90;99.90;;;;;;5035140;28;20140;-95
2021/06/05 03:23:06;;;;;;;12.23;11.13;;;14.90;99.90;;;;;;5039484;28;20065;-95
2021/06/05 03:25:34;;;;;;;11.80;10.45;;;14.90;99.90;;;;;;5055940;28;20076;-94
2021/06/05 03:28:01;;;;;;;12.10;10.95;;;14.90;99.90;;;;;;5041961;28;20069;-95
2021/06/05 03:30:29;;;;;;;12.27;11.07;;;14.90;99.90;;;;;;5034535;28;20077;-94
2021/06/05 03:32:56;;;;;;;14.20;12.27;;;14.90;99.90;;;;;;5034154;28;20079;-93
2021/06/05 03:35:23;;;;;;;12.95;11.82;;;14.90;99.90;;;;;;5033920;28;20488;-94
2021/06/05 03:37:51;;;;;;;14.05;11.85;;;14.90;99.90;;;;;;5034207;28;20056;-94
2021/06/05 03:40:22;;;;;;;14.50;12.70;;;14.80;99.90;;;;;;5034054;28;20073;-94
2021/06/05 03:42:49;;;;;;;17.10;13.57;;;14.80;99.90;;;;;;5033841;28;20050;-95
2021/06/05 03:45:16;;;;;;;14.32;12.57;;;14.80;99.90;;;;;;5033893;28;20494;-95
2021/06/05 03:47:46;;;;;;;15.63;14.13;;;14.70;99.90;;;;;;5034418;28;20073;-94
2021/06/05 03:50:18;;;;;;;13.73;12.43;;;14.70;99.90;;;;;;5034031;28;20069;-94
2021/06/05 03:52:45;;;;;;;14.55;13.05;;;14.70;99.90;;;;;;5036470;28;20421;-95
2021/06/05 03:55:13;;;;;;;13.73;12.48;;;14.80;99.90;;;;;;5034279;28;20144;-94
2021/06/05 03:57:40;;;;;;;13.40;11.20;;;14.90;99.90;;;;;;5033347;28;20498;-94
2021/06/05 04:00:12;;;;;;;15.25;13.30;;;14.90;99.90;;;;;;5033648;28;20069;-94
2021/06/05 04:02:39;;;;;;;13.43;12.20;;;14.90;99.90;;;;;;5033532;28;20472;-94
2021/06/05 04:05:08;;;;;;;13.88;12.43;;;14.90;99.90;;;;;;5033252;28;20045;-94
2021/06/05 04:07:37;;;;;;;14.02;12.73;;;14.90;99.90;;;;;;5033572;28;20133;-94
2021/06/05 04:10:07;;;;;;;13.60;12.38;;;15.00;99.90;;;;;;5034061;28;20449;-93
2021/06/05 04:12:34;;;;;;;12.38;11.07;;;15.10;99.90;;;;;;5033273;28;20141;-93
2021/06/05 04:15:02;;;;;;;12.30;11.15;;;15.10;99.90;;;;;;5032927;28;20167;-93
2021/06/05 04:17:32;;;;;;;13.05;11.25;;;15.10;99.90;;;;;;5033795;28;20109;-94
2021/06/05 04:19:59;;;;;;;12.77;10.82;;;15.10;99.90;;;;;;5033798;28;20057;-94
2021/06/05 04:22:26;;;;;;;11.85;10.85;;;15.10;99.90;;;;;;5032934;28;20068;-93
2021/06/05 04:24:53;;;;;;;12.30;11.10;;;15.10;99.90;;;;;;5034748;28;20137;-92
2021/06/05 04:27:20;;;;;;;13.52;11.05;;;15.20;99.90;;;;;;5048716;28;20065;-92
2021/06/05 04:29:46;;;;;;;11.90;10.98;;;15.20;99.90;;;;;;5052572;28;20080;-92
2021/06/05 04:32:13;;;;;;;12.30;11.05;;;15.20;99.90;;;;;;5043181;28;20068;-93
2021/06/05 04:34:40;;;;;;;13.75;10.95;;;15.20;99.90;;;;;;5036273;28;20128;-94
2021/06/05 04:37:07;;;;;;;12.18;11.15;;;15.30;99.90;;;;;;5036304;28;20132;-93
2021/06/05 04:39:34;;;;;;;12.95;11.65;;;15.30;99.90;;;;;;5038119;28;20135;-95
2021/06/05 04:42:01;;;;;;;14.25;12.85;;;15.30;99.90;;;;;;5042509;28;20044;-94
2021/06/05 04:44:28;;;;;;;13.18;11.88;;;15.40;99.90;;;;;;5059027;28;20032;-93
2021/06/05 04:46:55;;;;;;;14.45;10.82;;;15.50;99.90;;;;;;5048936;28;20055;-94
2021/06/05 04:49:26;;;;;;;13.10;9.57;;;15.70;99.90;;;;;;5039864;28;20135;-94
2021/06/05 04:51:53;;;;;;;13.23;10.75;;;15.70;99.90;;;;;;5036434;28;20067;-95
2021/06/05 04:54:20;;;;;;;12.52;11.00;;;15.80;99.90;;;;;;5036178;28;20072;-95
2021/06/05 04:56:49;;;;;;;10.30;9.50;;;15.90;99.90;;;;;;5036130;28;20072;-94
2021/06/05 04:59:19;;;;;;;15.27;10.18;;;16.00;99.90;;;;;;5038272;28;20080;-95
2021/06/05 05:01:46;;;;;;;11.32;9.05;;;16.20;99.90;;;;;;5036054;28;20135;-94
2021/06/05 05:04:13;;;;;;;9.75;8.85;;;16.30;99.90;;;;;;5036326;28;20083;-94
2021/06/05 05:06:40;;;;;;;10.45;8.48;;;16.40;99.90;;;;;;5035995;28;20132;-95
2021/06/05 05:09:10;;;;;;;9.45;8.55;;;16.50;99.90;;;;;;5035151;28;20076;-94
2021/06/05 05:11:38;;;;;;;10.93;8.10;;;16.60;99.90;;;;;;5035495;28;20482;-93
2021/06/05 05:14:05;;;;;;;8.63;7.97;;;16.80;99.90;;;;;;5033522;28;20136;-94
2021/06/05 05:16:32;;;;;;;7.53;7.03;;;16.80;99.90;;;;;;5025332;28;20053;-95
2021/06/05 05:19:00;;;;;;;8.38;7.70;;;16.90;99.90;;;;;;5016320;28;20053;-94
2021/06/05 05:21:27;;;;;;;8.55;7.85;;;16.90;99.90;;;;;;5019504;28;20140;-94
2021/06/05 05:23:55;;;;;;;8.75;7.95;;;17.00;99.90;;;;;;5020322;28;20136;-93
2021/06/05 05:26:22;;;;;;;9.07;8.25;;;17.10;99.90;;;;;;5026318;28;20049;-94
2021/06/05 05:28:52;;;;;;;8.70;7.78;;;17.00;99.90;;;;;;5040263;28;20149;-93
2021/06/05 05:31:21;;;;;;;7.68;7.05;;;17.10;99.90;;;;;;5040996;28;20135;-93
2021/06/05 05:33:48;;;;;;;8.15;7.50;;;17.30;99.90;;;;;;5039873;28;20489;-94
2021/06/05 05:36:25;;;;;;;8.40;7.60;;;17.30;99.90;;;;;;5039703;28;20140;-93
2021/06/05 05:38:53;;;;;;;10.38;7.07;;;17.50;99.90;;;;;;5039520;28;20057;-92
2021/06/05 05:41:23;;;;;;;11.55;7.57;;;17.70;99.90;;;;;;5039615;28;20132;-93
2021/06/05 05:43:50;;;;;;;12.75;8.40;;;17.80;99.90;;;;;;5039466;28;20131;-93
2021/06/05 05:46:18;;;;;;;10.77;7.15;;;17.80;99.90;;;;;;5039931;28;20561;-93
2021/06/05 05:48:45;;;;;;;8.18;7.35;;;18.00;99.90;;;;;;5040341;28;20041;-94
2021/06/05 05:51:15;;;;;;;9.32;7.47;;;18.10;99.90;;;;;;5039719;28;20136;-95
2021/06/05 05:53:42;;;;;;;7.55;6.90;;;18.30;99.90;;;;;;5027096;28;20052;-92
2021/06/05 05:56:14;;;;;;;7.32;6.75;;;18.20;99.90;;;;;;5020262;28;20049;-93
2021/06/05 05:58:43;;;;;;;7.55;6.90;;;18.20;99.90;;;;;;5019196;28;20470;-91
2021/06/05 06:01:12;;;;;;;7.20;6.60;;;18.30;99.90;;;;;;5029372;28;20121;-94
2021/06/05 06:03:45;;;;;;;8.07;7.32;;;18.40;99.90;;;;;;5043300;28;20026;-94
2021/06/05 06:06:12;;;;;;;9.35;6.85;;;18.60;99.90;;;;;;5021487;28;20480;-94
2021/06/05 06:08:39;;;;;;;8.00;6.93;;;18.80;99.90;;;;;;5019191;28;20072;-94
2021/06/05 06:11:09;;;;;;;7.32;6.80;;;18.90;99.90;;;;;;5017320;28;20452;-94
2021/06/05 06:13:36;;;;;;;7.15;6.65;;;19.20;99.90;;;;;;5018225;28;20557;-92
2021/06/05 06:16:07;;;;;;;9.05;5.93;;;19.50;99.90;;;;;;5018521;28;20045;-95
2021/06/05 06:18:36;;;;;;;6.72;6.22;;;20.00;99.90;;;;;;5019565;28;20045;-93
2021/06/05 06:21:07;;;;;;;6.25;5.65;;;20.60;99.90;;;;;;5019091;28;20053;-93
2021/06/05 06:23:36;;;;;;;6.57;5.65;;;21.30;99.90;;;;;;5018851;28;20469;-93
2021/06/05 06:26:07;;;;;;;5.95;5.50;;;22.00;99.90;;;;;;5018382;28;20076;-94
2021/06/05 06:28:37;;;;;;;6.68;5.38;;;22.40;99.90;;;;;;5018967;28;20136;-94
2021/06/05 06:31:05;;;;;;;5.88;5.22;;;22.80;99.90;;;;;;5018430;28;20552;-95
2021/06/05 06:33:32;;;;;;;5.78;5.32;;;23.10;99.90;;;;;;5018530;28;20494;-94
2021/06/05 06:36:00;;;;;;;6.03;5.53;;;23.40;99.90;;;;;;5018473;28;20055;-94
2021/06/05 06:38:32;;;;;;;7.05;5.68;;;23.70;99.90;;;;;;5019189;28;20152;-94
2021/06/05 06:41:00;;;;;;;8.55;5.90;;;23.90;99.90;;;;;;5018820;28;20477;-93
2021/06/05 06:43:29;;;;;;;6.78;5.90;;;23.50;99.90;;;;;;5019332;28;20047;-93
2021/06/05 06:45:59;;;;;;;5.70;5.20;;;22.90;99.90;;;;;;5024963;28;20076;-94
2021/06/05 06:48:26;;;;;;;6.43;5.93;;;22.70;99.90;;;;;;5031083;28;20059;-94
2021/06/05 06:50:53;;;;;;;6.63;6.07;;;22.30;99.90;;;;;;5037623;28;20053;-94
2021/06/05 06:53:20;;;;;;;6.25;5.75;;;22.10;99.90;;;;;;5020778;28;20070;-94
2021/06/05 06:55:47;;;;;;;10.02;6.07;;;22.30;99.90;;;;;;5018869;28;20574;-95
2021/06/05 06:58:14;;;;;;;5.93;5.38;;;22.80;99.90;;;;;;5022062;28;20068;-93
2021/06/05 07:00:44;;;;;;;6.13;5.63;;;23.30;99.90;;;;;;5023328;28;20490;-95
2021/06/05 07:03:12;;;;;;;6.93;5.88;;;23.10;99.90;;;;;;5025666;28;20048;-94
2021/06/05 07:05:42;;;;;;;7.97;5.43;;;23.40;99.90;;;;;;5024591;28;20045;-95
2021/06/05 07:08:18;;;;;;;6.75;6.25;;;23.50;99.90;;;;;;5021569;28;20049;-94
2021/06/05 07:10:47;;;;;;;7.80;5.93;;;23.50;99.90;;;;;;5026007;28;20187;-96
2021/06/05 07:13:14;;;;;;;10.00;5.95;;;24.40;99.90;;;;;;5021265;28;20096;-95
2021/06/05 07:15:41;;;;;;;24.83;6.07;;;26.50;99.90;;;;;;5019889;28;20068;-95
2021/06/05 07:18:10;;;;;;;24.08;7.00;;;28.50;99.90;;;;;;5026878;28;20053;-94
2021/06/05 07:20:38;;;;;;;15.32;6.22;;;29.50;99.90;;;;;;5039468;28;20051;-93
2021/06/05 07:23:07;;;;;;;13.13;5.97;;;30.30;99.90;;;;;;5041381;28;20045;-93
2021/06/05 07:25:49;;;;;;;8.68;4.72;;;30.60;99.90;;;;;;5025711;28;20061;-91
2021/06/05 07:28:23;;;;;;;10.55;5.28;;;30.90;99.90;;;;;;5019412;28;20053;-90
2021/06/05 07:30:52;;;;;;;5.18;4.70;;;31.80;99.70;;;;;;5018155;28;20136;-90
2021/06/05 07:33:20;;;;;;;9.93;4.70;;;31.40;99.10;;;;;;5020489;28;20072;-92
2021/06/05 07:35:47;;;;;;;5.80;4.30;;;32.30;98.50;;;;;;5022742;28;20136;-94
2021/06/05 07:38:15;;;;;;;9.25;4.53;;;31.80;94.10;;;;;;5026342;28;20447;-91
2021/06/05 07:40:46;;;;;;;4.88;4.25;;;33.20;94.90;;;;;;5023877;28;20513;-92
2021/06/05 07:43:17;;;;;;;;;;;34.20;90.80;;;;;;5030148;28;20049;-94
2021/06/05 07:45:45;;;;;;;5.93;4.32;;;35.50;84.50;;;;;;5043528;28;19959;-93
2021/06/05 07:48:15;;;;;;;6.78;4.00;;;35.40;80.50;;;;;;5032030;28;20049;-94
2021/06/05 07:50:58;;;;;;;4.43;3.80;;;36.50;75.00;;;;;;5028526;28;20058;-94
2021/06/05 07:53:25;;;;;;;8.30;3.88;;;37.90;69.90;;;;;;5026592;28;20486;-91
2021/06/05 07:55:53;;;;;;;9.75;3.90;;;37.80;67.70;;;;;;5025899;28;20144;-93
2021/06/05 07:58:22;;;;;;;10.95;4.22;;;37.60;65.20;;;;;;5004162;28;20054;-93
2021/06/05 08:00:58;;;;;;;9.57;3.97;;;36.80;67.20;;;;;;5022677;28;20068;-95
2021/06/05 08:03:33;;;;;;;5.13;3.38;;;37.30;65.40;;;;;;5043098;28;20557;-92
2021/06/05 08:06:03;;;;;;;7.25;4.10;;;36.70;68.00;;;;;;5025963;28;20056;-94
2021/06/05 08:08:44;;;;;;;5.00;3.33;;;37.00;67.80;;;;;;5030234;28;20052;-92
2021/06/05 08:11:12;;;;;;;6.63;4.07;;;36.60;67.20;;;;;;5025606;28;20120;-90
2021/06/05 08:13:42;;;;;;;7.55;4.78;;;35.10;69.40;;;;;;5024653;28;20087;-94
2021/06/05 08:16:16;;;;;;;4.70;4.18;;;34.20;74.30;;;;;;5024769;28;20072;-92
2021/06/05 08:18:44;;;;;;;6.70;4.47;;;34.40;75.40;;;;;;5025600;28;20060;-90
2021/06/05 08:21:15;;;;;;;4.40;4.00;;;35.20;75.60;;;;;;5024044;28;20136;-92
2021/06/05 08:23:42;;;;;;;3.72;3.33;;;35.50;73.70;;;;;;5006983;28;20069;-90
2021/06/05 08:26:11;;;;;;;4.15;2.72;;;36.00;70.80;;;;;;5012699;28;20062;-93
2021/06/05 08:28:39;;;;;;;3.83;3.63;;;37.20;67.70;;;;;;5005145;28;20054;-89
2021/06/05 08:31:13;;;;;;;4.75;3.58;;;37.90;66.80;;;;;;5005548;28;20072;-92
2021/06/05 08:33:41;;;;;;;6.03;3.30;;;38.00;63.40;;;;;;5005324;28;20084;-92
2021/06/05 08:36:13;;;;;;;5.75;3.47;;;37.20;63.60;;;;;;5001329;28;20073;-88
2021/06/05 08:38:40;;;;;;;3.42;1.90;;;39.60;60.90;;;;;;5006024;28;20067;-93
2021/06/05 08:41:36;;;;;;;6.20;2.92;;;38.90;59.80;;;;;;5021130;28;20037;-93
2021/06/05 08:44:14;;;;;;;4.57;2.70;;;37.90;60.30;;;;;;5007858;28;20076;-92
2021/06/05 08:47:05;;;;;;;8.48;2.80;;;36.10;61.50;;;;;;5005211;28;20050;-92
2021/06/05 08:49:36;;;;;;;4.10;2.97;;;35.80;64.20;;;;;;5019266;28;20080;-91
2021/06/05 08:52:09;;;;;;;2.78;2.58;;;34.60;66.50;;;;;;4991001;28;20054;-90
2021/06/05 08:54:46;;;;;;;4.82;2.83;;;32.90;72.30;;;;;;4996056;28;20125;-89
2021/06/05 08:57:38;;;;;;;3.45;2.50;;;32.10;74.50;;;;;;5003375;28;20053;-92
2021/06/05 09:00:30;;;;;;;4.65;2.88;;;31.50;78.70;;;;;;5004359;28;20121;-91
2021/06/05 09:03:14;;;;;;;4.35;3.15;;;31.00;82.70;;;;;;5011734;28;20140;-93
2021/06/05 09:06:05;;;;;;;2.83;2.60;;;31.60;84.50;;;;;;5013403;28;20056;-94
2021/06/05 09:08:32;;;;;;;4.50;2.40;;;31.50;84.10;;;;;;5017090;28;20054;-92
2021/06/05 09:11:09;;;;;;;4.03;2.67;;;32.00;81.80;;;;;;5019147;28;20045;-93
2021/06/05 09:13:39;;;;;;;2.75;2.55;;;32.60;80.50;;;;;;5005444;28;20060;-92
2021/06/05 09:16:23;;;;;;;3.15;2.35;;;32.30;81.60;;;;;;5006036;28;20045;-93
2021/06/05 09:19:11;;;;;;;2.95;2.22;;;31.90;81.80;;;;;;5005545;28;20109;-91
2021/06/05 09:21:49;;;;;;;4.15;2.28;;;31.60;81.70;;;;;;4995024;28;20054;-92
2021/06/05 09:24:24;;;;;;;2.50;2.30;;;32.20;81.40;;;;;;5005963;28;20130;-94
2021/06/05 09:27:16;;;;;;;4.03;2.38;;;32.10;82.60;;;;;;5023481;28;20080;-93
2021/06/05 09:29:54;;;;;;;2.90;2.03;;;31.70;83.00;;;;;;5044423;28;20075;-94
2021/06/05 09:32:23;;;;;;;2.65;2.10;;;31.40;86.60;;;;;;5043024;28;20066;-90
2021/06/05 09:35:16;;;;;;;2.47;2.30;;;31.40;84.20;;;;;;5042394;28;20083;-93
2021/06/05 09:37:45;;;;;;;3.25;2.60;;;31.10;85.80;;;;;;5028460;28;20081;-93
2021/06/05 09:40:19;;;;;;;4.45;2.67;;;31.20;85.80;;;;;;5043382;28;20088;-93
2021/06/05 09:43:18;;;;;;;3.53;1.80;;;31.30;86.70;;;;;;5042267;28;20449;-89
2021/06/05 09:46:12;;;;;;;3.78;2.03;;;30.90;86.70;;;;;;5043165;28;20141;-91
2021/06/05 09:48:46;;;;;;;1.95;1.67;;;30.60;87.80;;;;;;5040822;28;20053;-92
2021/06/05 09:51:39;;;;;;;2.90;2.22;;;30.70;89.00;;;;;;5029839;28;20065;-91
2021/06/05 09:54:28;;;;;;;;;;;30.10;90.40;;;;;;5047647;28;20053;-92
2021/06/05 09:57:34;;;;;;;1.92;1.67;;;29.50;93.10;;;;;;5044989;28;19937;-94
2021/06/05 10:00:10;;;;;;;2.05;1.95;;;29.30;98.90;;;;;;5056722;23;20083;-84
2021/06/05 10:02:41;;;;;;;4.50;2.20;;;29.50;99.60;;;;;;5019354;28;20046;-82
2021/06/05 10:05:27;;;;;;;3.33;2.67;;;29.70;97.80;;;;;;5031357;28;20073;-83
2021/06/05 10:07:56;;;;;;;2.97;2.75;;;29.50;98.80;;;;;;4998853;28;20132;-84
2021/06/05 10:10:24;;;;;;;3.88;2.72;;;29.60;99.10;;;;;;5016527;28;20050;-84
2021/06/05 10:12:52;;;;;;;2.22;1.88;;;30.20;98.10;;;;;;4998746;28;20253;-84
2021/06/05 10:15:30;;;;;;;4.60;2.60;;;30.30;97.30;;;;;;4999200;28;20136;-83
2021/06/05 10:18:04;;;;;;;4.70;2.38;;;30.20;97.60;;;;;;4999132;28;20052;-84
2021/06/05 10:20:41;;;;;;;4.28;2.05;;;30.10;96.60;;;;;;4998146;28;20475;-84
2021/06/05 10:23:08;;;;;;;3.15;2.22;;;29.70;96.60;;;;;;4999407;28;20128;-83
2021/06/05 10:25:47;;;;;;;2.47;2.25;;;29.10;99.90;;;;;;5002292;28;20073;-83
2021/06/05 10:28:18;;;;;;;2.78;2.25;;;28.50;99.90;;;;;;5001818;28;20054;-83
2021/06/05 10:30:48;;;;;;;3.03;2.63;;;27.90;99.90;;;;;;5000693;28;20084;-82
2021/06/05 10:33:34;;;;;;;3.63;2.63;;;27.20;99.90;;;;;;5000749;28;20111;-83
2021/06/05 10:36:03;;;;;;;2.97;2.60;;;26.50;99.90;;;;;;5000450;28;20058;-82
2021/06/05 10:38:40;;;;;;;2.63;2.40;;;26.10;99.90;;;;;;5001694;28;20045;-82
2021/06/05 10:41:11;;;;;;;39.58;5.82;;;25.90;99.90;;;;;;5017433;28;20491;-82
2021/06/05 10:43:38;;;;;;;20.20;4.43;;;25.60;99.90;;;;;;5002233;28;20056;-82
2021/06/05 10:46:40;;;;;;;6.70;2.80;;;25.50;99.90;;;;;;5003422;28;20108;-82
2021/06/05 10:49:40;;;;;;;6.90;3.28;;;25.30;99.90;;;;;;5003780;28;20050;-83
2021/06/05 10:52:30;;;;;;;5.85;3.10;;;25.10;99.90;;;;;;5017273;28;20137;-85
2021/06/05 10:55:25;;;;;;;6.50;4.88;;;24.80;99.90;;;;;;5001071;28;20053;-83
2021/06/05 10:58:15;;;;;;;8.50;3.83;;;24.30;99.90;;;;;;4996360;28;20077;-84
2021/06/05 11:00:41;;;;;;;5.30;3.80;;;23.40;99.90;;;;;;4998454;28;20100;-84
2021/06/05 11:03:30;;;;;;;10.38;4.05;;;22.70;99.90;;;;;;4999413;28;20470;-85
2021/06/05 11:06:08;;;;;;;5.78;4.05;;;22.10;99.90;;;;;;4999568;28;20049;-84
2021/06/05 11:08:54;;;;;;;4.82;3.92;;;21.50;99.90;;;;;;5020945;23;20121;-83
2021/06/05 11:11:41;;;;;;;7.57;4.40;;;21.00;99.90;;;;;;4999245;28;20503;-84
2021/06/05 11:14:10;;;;;;;5.80;4.80;;;20.60;99.90;;;;;;4998769;28;20120;-84
2021/06/05 11:16:59;;;;;;;5.78;4.60;;;20.30;99.90;;;;;;4994699;28;20089;-88
2021/06/05 11:19:40;;;;;;;13.18;5.15;;;20.00;99.90;;;;;;4997642;28;20500;-86
2021/06/05 11:22:16;;;;;;;10.60;5.47;;;19.70;99.90;;;;;;4998145;28;20050;-86
2021/06/05 11:25:06;;;;;;;12.10;5.57;;;19.40;99.90;;;;;;4997714;28;20061;-86
2021/06/05 11:27:39;;;;;;;9.32;5.72;;;19.10;99.90;;;;;;4987655;28;20050;-86
2021/06/05 11:30:21;;;;;;;6.10;4.90;;;18.90;99.90;;;;;;4997874;28;20564;-84
2021/06/05 11:33:08;;;;;;;8.35;5.57;;;18.80;99.90;;;;;;5015264;28;20046;-84
2021/06/05 11:35:57;;;;;;;14.52;5.63;;;18.50;99.90;;;;;;5016134;28;20141;-84
2021/06/05 11:38:24;;;;;;;6.18;4.95;;;18.40;99.90;;;;;;4998248;28;20050;-84
2021/06/05 11:41:30;;;;;;;11.02;5.95;;;18.30;99.90;;;;;;4998557;28;20069;-85
2021/06/05 11:44:18;;;;;;;20.88;6.10;;;18.20;99.90;;;;;;4997629;28;20108;-85
2021/06/05 11:46:48;;;;;;;10.85;5.88;;;18.10;99.90;;;;;;4997607;28;20463;-85
2021/06/05 11:49:40;;;;;;;14.50;6.00;;;18.10;99.90;;;;;;4998906;28;20439;-84
2021/06/05 11:52:25;;;;;;;11.20;6.00;;;18.00;99.90;;;;;;4991964;28;20077;-86
2021/06/05 11:55:11;;;;;;;18.98;6.20;;;18.00;99.90;;;;;;4998264;28;20060;-86
2021/06/05 11:57:37;;;;;;;7.95;6.07;;;18.00;99.90;;;;;;4998037;28;20052;-85
2021/06/05 12:00:11;;;;;;;11.18;7.28;;;18.00;99.90;;;;;;4998199;28;20137;-83
2021/06/05 12:02:45;;;;;;;14.07;7.40;;;18.00;99.90;;;;;;5008343;28;20048;-85
2021/06/05 12:05:41;;;;;;;10.85;6.35;;;18.00;99.90;;;;;;4988980;28;20456;-84
2021/06/05 12:08:39;;;;;;;16.33;7.57;;;18.00;99.90;;;;;;4983968;28;20061;-83
2021/06/05 12:11:32;;;;;;;16.98;6.18;;;18.10;99.90;;;;;;4987364;28;20054;-81
2021/06/05 12:14:14;;;;;;;9.80;6.20;;;18.00;99.90;;;;;;4975681;28;20120;-83
2021/06/05 12:16:54;;;;;;;7.57;5.70;;;18.00;99.90;;;;;;4977534;28;20050;-83
2021/06/05 12:19:35;;;;;;;8.35;6.10;;;17.90;99.90;;;;;;4995092;28;20042;-85
2021/06/05 12:22:27;;;;;;;13.50;7.45;;;17.80;99.90;;;;;;4977356;28;20088;-85
2021/06/05 12:24:55;;;;;;;13.93;6.88;;;17.80;99.90;;;;;;4978092;28;20115;-85
2021/06/05 12:27:31;;;;;;;8.82;7.53;;;18.00;99.90;;;;;;4983077;28;20050;-86
2021/06/05 12:30:25;;;;;;;11.88;7.35;;;18.00;99.90;;;;;;4979205;28;20446;-83
2021/06/05 12:32:57;;;;;;;8.43;6.90;;;18.10;99.90;;;;;;4978868;28;20046;-84
2021/06/05 12:35:34;;;;;;;8.20;7.32;;;18.20;99.90;;;;;;4977953;28;20046;-85
2021/06/05 12:38:01;;;;;;;8.55;6.55;;;18.20;99.90;;;;;;4978992;28;20046;-84
2021/06/05 12:40:43;;;;;;;9.27;6.22;;;18.30;99.90;;;;;;4978825;28;20073;-86
2021/06/05 12:43:15;;;;;;;6.75;6.05;;;18.40;99.90;;;;;;4994593;28;20513;-86
2021/06/05 12:45:43;;;;;;;12.00;7.03;;;18.40;99.90;;;;;;4976872;28;20046;-86
2021/06/05 12:48:14;;;;;;;9.25;5.63;;;18.50;99.90;;;;;;4979074;28;20050;-88
2021/06/05 12:50:43;;;;;;;10.20;6.40;;;18.50;99.90;;;;;;4976894;28;20061;-85
2021/06/05 12:53:18;;;;;;;10.77;6.07;;;18.60;99.90;;;;;;4976872;28;20129;-89
2021/06/05 12:55:51;;;;;;;10.98;6.13;;;18.60;99.90;;;;;;4976401;28;20480;-89
2021/06/05 12:58:42;;;;;;;12.03;9.97;;;18.70;99.90;;;;;;4976755;28;20457;-89
2021/06/05 13:01:31;;;;;;;16.25;14.45;;;18.70;99.90;;;;;;4976640;28;20130;-90
2021/06/05 13:04:00;;;;;;;14.40;11.60;;;18.80;99.90;;;;;;4976856;28;20073;-89
2021/06/05 13:06:31;;;;;;;19.17;14.23;;;18.90;99.90;;;;;;4976302;28;20130;-90
2021/06/05 13:09:23;;;;;;;17.42;12.60;;;18.90;99.90;;;;;;4976611;28;20104;-88